createdAt,value
2022-08-11T00:00:06.796Z,2.33
2022-08-11T00:02:38.495Z,2.90
2022-08-11T00:05:10.918Z,2.80
2022-08-11T00:07:47.369Z,2.80
2022-08-11T00:10:19.249Z,2.72
2022-08-11T00:12:54.186Z,2.50
2022-08-11T00:15:24.564Z,2.67
2022-08-11T00:17:58.616Z,2.50
2022-08-11T00:20:32.951Z,2.70
2022-08-11T00:23:08.608Z,2.47
2022-08-11T00:25:41.618Z,2.70
2022-08-11T00:28:27.363Z,2.90
2022-08-11T00:30:57.582Z,2.97
2022-08-11T00:33:41.187Z,2.70
2022-08-11T00:36:16.474Z,2.83
2022-08-11T00:38:50.303Z,2.60
2022-08-11T00:41:31.435Z,2.60
2022-08-11T00:44:17.430Z,2.70
2022-08-11T00:46:58.621Z,2.53
2022-08-11T00:49:42.481Z,2.58
2022-08-11T00:52:28.950Z,2.90
2022-08-11T00:55:41.569Z,2.80
2022-08-11T00:59:26.383Z,2.60
2022-08-11T01:02:17.210Z,3.13
2022-08-11T01:05:35.666Z,2.58
2022-08-11T01:09:09.404Z,2.92
2022-08-11T01:12:19.962Z,2.80
2022-08-11T01:15:29.330Z,2.83
2022-08-11T01:19:09.144Z,2.45
2022-08-11T01:22:26.000Z,2.63
2022-08-11T01:25:57.279Z,2.90
2022-08-11T01:29:04.768Z,2.63
2022-08-11T01:32:12.472Z,2.65
2022-08-11T01:35:41.336Z,2.53
2022-08-11T01:39:02.042Z,2.50
2022-08-11T01:42:07.370Z,2.42
2022-08-11T01:45:26.989Z,2.58
2022-08-11T01:48:04.983Z,2.38
2022-08-11T01:50:55.082Z,2.38
2022-08-11T01:53:35.637Z,2.38
2022-08-11T01:56:50.982Z,2.45
2022-08-11T01:59:24.514Z,2.55
2022-08-11T02:02:21.564Z,2.30
2022-08-11T02:05:00.376Z,2.42
2022-08-11T02:07:39.715Z,2.40
2022-08-11T02:10:42.265Z,2.50
2022-08-11T02:13:36.658Z,2.90
2022-08-11T02:16:22.395Z,2.85
2022-08-11T02:19:15.024Z,2.88
2022-08-11T02:22:09.855Z,2.75
2022-08-11T02:24:50.436Z,2.75
2022-08-11T02:27:24.508Z,2.55
2022-08-11T02:30:07.448Z,2.72
2022-08-11T02:33:04.498Z,2.53
2022-08-11T02:35:45.775Z,2.65
2022-08-11T02:38:26.541Z,2.70
2022-08-11T02:41:29.714Z,2.50
2022-08-11T02:44:28.669Z,2.78
2022-08-11T02:47:08.151Z,2.53
2022-08-11T02:50:02.791Z,2.58
2022-08-11T02:52:46.335Z,3.35
2022-08-11T02:55:44.676Z,3.47
2022-08-11T02:58:27.943Z,4.10
2022-08-11T03:01:06.280Z,3.95
2022-08-11T03:03:47.848Z,4.05
2022-08-11T03:06:30.919Z,3.83
2022-08-11T03:09:07.441Z,3.15
2022-08-11T03:12:21.805Z,3.25
2022-08-11T03:15:26.685Z,3.20
2022-08-11T03:18:05.364Z,3.22
2022-08-11T03:20:44.703Z,2.67
2022-08-11T03:23:28.372Z,2.50
2022-08-11T03:26:14.851Z,2.60
2022-08-11T03:29:02.492Z,2.63
2022-08-11T03:31:36.532Z,2.65
2022-08-11T03:34:09.037Z,2.75
2022-08-11T03:37:47.250Z,2.50
2022-08-11T03:40:51.167Z,2.65
2022-08-11T03:43:39.058Z,2.55
2022-08-11T03:46:28.422Z,2.47
2022-08-11T03:49:08.632Z,2.70
2022-08-11T03:51:52.446Z,2.75
2022-08-11T03:54:35.451Z,2.83
2022-08-11T03:57:51.136Z,2.67
2022-08-11T04:00:59.074Z,2.50
2022-08-11T04:04:09.362Z,2.35
2022-08-11T04:07:48.251Z,2.63
2022-08-11T04:10:50.647Z,2.53
2022-08-11T04:13:55.614Z,2.65
2022-08-11T04:16:44.372Z,2.53
2022-08-11T04:20:19.377Z,2.80
2022-08-11T04:24:37.229Z,2.65
2022-08-11T04:27:14.194Z,2.60
2022-08-11T04:30:09.143Z,2.70
2022-08-11T04:33:42.430Z,3.00
2022-08-11T04:36:56.492Z,2.78
2022-08-11T04:39:44.530Z,2.58
2022-08-11T04:43:18.982Z,2.72
2022-08-11T04:46:19.041Z,2.67
2022-08-11T04:49:33.997Z,2.40
2022-08-11T04:52:41.824Z,2.50
2022-08-11T04:55:56.815Z,2.90
2022-08-11T04:59:03.240Z,2.53
2022-08-11T05:01:53.900Z,2.42
2022-08-11T05:05:15.090Z,2.70
2022-08-11T05:08:28.622Z,2.72
2022-08-11T05:11:21.033Z,3.10
2022-08-11T05:14:24.680Z,2.78
2022-08-11T05:17:16.477Z,3.15
2022-08-11T05:20:05.235Z,3.10
2022-08-11T05:22:51.853Z,2.42
2022-08-11T05:26:44.265Z,3.28
2022-08-11T05:29:19.188Z,2.70
2022-08-11T05:32:18.126Z,3.17
2022-08-11T05:34:53.472Z,3.20
2022-08-11T05:37:33.177Z,3.35
2022-08-11T05:40:28.120Z,3.08
2022-08-11T05:43:20.519Z,3.40
2022-08-11T05:46:17.598Z,3.13
2022-08-11T05:49:04.608Z,3.15
2022-08-11T05:52:16.302Z,3.67
2022-08-11T05:55:06.913Z,3.58
2022-08-11T05:57:51.094Z,3.78
2022-08-11T06:00:24.208Z,3.35
2022-08-11T06:03:00.856Z,3.67
2022-08-11T06:05:37.353Z,3.53
2022-08-11T06:08:36.649Z,3.15
2022-08-11T06:11:07.254Z,2.97
2022-08-11T06:13:35.676Z,3.42
2022-08-11T06:16:07.323Z,3.25
2022-08-11T06:18:37.362Z,3.50
2022-08-11T06:21:12.203Z,3.30
2022-08-11T06:23:42.546Z,3.40
2022-08-11T06:26:11.780Z,3.25
2022-08-11T06:28:50.270Z,2.95
2022-08-11T06:31:24.139Z,2.92
2022-08-11T06:34:12.275Z,3.05
2022-08-11T06:37:04.615Z,3.03
2022-08-11T06:39:48.200Z,3.25
2022-08-11T06:42:49.093Z,3.25
2022-08-11T06:45:35.177Z,3.38
2022-08-11T06:48:06.546Z,3.00
2022-08-11T06:50:52.617Z,2.75
2022-08-11T06:53:21.962Z,2.78
2022-08-11T06:56:09.557Z,3.53
2022-08-11T06:58:58.903Z,2.67
2022-08-11T07:01:49.343Z,3.13
2022-08-11T07:04:30.239Z,3.05
2022-08-11T07:07:44.282Z,2.95
2022-08-11T07:11:01.554Z,2.67
2022-08-11T07:13:52.117Z,3.35
2022-08-11T07:16:27.320Z,2.88
2022-08-11T07:19:18.492Z,2.88
2022-08-11T07:22:06.555Z,2.92
2022-08-11T07:25:01.796Z,2.97
2022-08-11T07:28:00.586Z,2.95
2022-08-11T07:30:29.813Z,2.90
2022-08-11T07:33:00.972Z,2.80
2022-08-11T07:35:34.783Z,2.72
2022-08-11T07:38:08.864Z,2.90
2022-08-11T07:40:38.842Z,2.65
2022-08-11T07:43:08.022Z,2.78
2022-08-11T07:45:53.674Z,2.90
2022-08-11T07:48:39.826Z,3.10
2022-08-11T07:51:25.756Z,2.60
2022-08-11T07:53:58.406Z,2.78
2022-08-11T07:57:07.518Z,2.45
2022-08-11T08:00:02.741Z,2.50
2022-08-11T08:02:58.436Z,2.35
2022-08-11T08:05:44.531Z,2.70
2022-08-11T08:08:33.154Z,2.60
2022-08-11T08:11:27.123Z,2.50
2022-08-11T08:14:14.216Z,2.47
2022-08-11T08:17:00.963Z,2.50
2022-08-11T08:19:29.470Z,2.55
2022-08-11T08:22:11.038Z,2.58
2022-08-11T08:24:47.037Z,2.30
2022-08-11T08:27:17.593Z,2.70
2022-08-11T08:30:04.638Z,2.20
2022-08-11T08:32:35.103Z,2.67
2022-08-11T08:35:05.647Z,2.40
2022-08-11T08:37:46.933Z,2.78
2022-08-11T08:40:16.261Z,2.10
2022-08-11T08:42:53.571Z,2.35
2022-08-11T08:45:22.799Z,2.70
2022-08-11T08:48:00.254Z,2.33
2022-08-11T08:50:47.164Z,2.72
2022-08-11T08:53:17.876Z,2.63
2022-08-11T08:55:48.025Z,2.42
2022-08-11T08:58:20.435Z,2.33
2022-08-11T09:00:54.578Z,2.85
2022-08-11T09:04:04.787Z,2.55
2022-08-11T09:06:16.131Z,2.72
2022-08-11T09:08:46.121Z,2.55
2022-08-11T09:11:44.068Z,2.40
2022-08-11T09:14:15.261Z,2.67
2022-08-11T09:16:44.856Z,2.30
2022-08-11T09:19:17.509Z,2.25
2022-08-11T09:22:12.305Z,2.30
2022-08-11T09:24:59.170Z,2.40
2022-08-11T09:27:28.697Z,2.60
2022-08-11T09:29:59.866Z,2.25
2022-08-11T09:32:31.454Z,2.38
2022-08-11T09:35:00.006Z,2.20
2022-08-11T09:37:54.541Z,2.40
2022-08-11T09:40:31.198Z,2.35
2022-08-11T09:43:19.069Z,2.25
2022-08-11T09:45:51.849Z,2.30
2022-08-11T09:48:21.146Z,2.30
2022-08-11T09:50:52.216Z,2.17
2022-08-11T09:53:37.238Z,2.00
2022-08-11T09:56:31.396Z,2.13
2022-08-11T09:59:00.818Z,2.28
2022-08-11T10:01:49.189Z,2.25
2022-08-11T10:04:20.471Z,2.30
2022-08-11T10:07:04.210Z,2.03
2022-08-11T10:09:40.833Z,2.33
2022-08-11T10:12:12.962Z,2.10
2022-08-11T10:15:04.301Z,2.72
2022-08-11T10:17:37.867Z,2.20
2022-08-11T10:20:09.987Z,2.30
2022-08-11T10:22:56.075Z,2.20
2022-08-11T10:25:56.787Z,2.20
2022-08-11T10:28:33.528Z,2.10
2022-08-11T10:31:30.570Z,2.28
2022-08-11T10:34:17.996Z,2.38
2022-08-11T10:36:49.187Z,2.17
2022-08-11T10:39:22.478Z,2.22
2022-08-11T10:42:08.951Z,2.20
2022-08-11T10:44:41.821Z,2.20
2022-08-11T10:47:31.211Z,2.33
2022-08-11T10:50:19.215Z,1.90
2022-08-11T10:53:07.970Z,2.28
2022-08-11T10:55:55.306Z,2.10
2022-08-11T10:58:44.989Z,1.95
2022-08-11T11:01:14.601Z,2.25
2022-08-11T11:03:45.329Z,2.13
2022-08-11T11:06:30.058Z,2.10
2022-08-11T11:09:06.048Z,2.35
2022-08-11T11:11:57.285Z,2.42
2022-08-11T11:14:56.404Z,2.10
2022-08-11T11:17:50.782Z,2.10
2022-08-11T11:20:36.335Z,2.15
2022-08-11T11:23:16.725Z,2.08
2022-08-11T11:26:11.195Z,2.42
2022-08-11T11:29:06.752Z,2.17
2022-08-11T11:31:52.008Z,2.25
2022-08-11T11:34:47.996Z,2.35
2022-08-11T11:37:23.995Z,1.92
2022-08-11T11:39:57.432Z,2.17
2022-08-11T11:42:26.222Z,1.80
2022-08-11T11:44:56.385Z,2.25
2022-08-11T11:47:26.404Z,2.10
2022-08-11T11:49:55.626Z,2.03
2022-08-11T11:52:24.897Z,1.98
2022-08-11T11:54:58.257Z,2.10
2022-08-11T11:57:58.550Z,2.30
2022-08-11T12:00:47.735Z,1.88
2022-08-11T12:03:16.627Z,2.63
2022-08-11T12:05:45.729Z,3.85
2022-08-11T12:08:16.233Z,6.20
2022-08-11T12:11:11.866Z,4.30
2022-08-11T12:13:43.173Z,5.35
2022-08-11T12:16:34.558Z,7.03
2022-08-11T12:19:02.865Z,5.85
2022-08-11T12:21:32.293Z,6.72
2022-08-11T12:24:20.970Z,5.40
2022-08-11T12:27:15.985Z,5.10
2022-08-11T12:29:52.837Z,4.90
2022-08-11T12:32:26.915Z,4.32
2022-08-11T12:34:56.886Z,4.43
2022-08-11T12:37:32.723Z,4.18
2022-08-11T12:40:43.335Z,4.55
2022-08-11T12:43:39.014Z,3.80
2022-08-11T12:46:15.209Z,3.65
2022-08-11T12:49:05.769Z,3.58
2022-08-11T12:52:00.947Z,3.70
2022-08-11T12:54:52.714Z,3.42
2022-08-11T12:57:49.414Z,3.72
2022-08-11T13:00:38.026Z,3.72
2022-08-11T13:03:28.520Z,3.70
2022-08-11T13:06:00.033Z,3.90
2022-08-11T13:08:30.283Z,3.20
2022-08-11T13:11:19.254Z,3.58
2022-08-11T13:13:54.257Z,3.67
2022-08-11T13:16:30.880Z,3.28
2022-08-11T13:19:01.796Z,3.00
2022-08-11T13:21:30.737Z,3.00
2022-08-11T13:24:02.446Z,3.00
2022-08-11T13:26:48.471Z,3.05
2022-08-11T13:29:28.581Z,3.00
2022-08-11T13:31:59.707Z,2.90
2022-08-11T13:34:31.102Z,2.58
2022-08-11T13:37:04.228Z,2.70
2022-08-11T13:39:34.408Z,2.60
2022-08-11T13:42:04.890Z,2.92
2022-08-11T13:44:38.772Z,2.60
2022-08-11T13:47:13.123Z,2.83
2022-08-11T13:49:42.969Z,2.47
2022-08-11T13:52:15.728Z,2.45
2022-08-11T13:54:48.032Z,2.20
2022-08-11T13:58:08.784Z,2.05
2022-08-11T14:00:13.317Z,1.88
2022-08-11T14:02:56.897Z,2.80
2022-08-11T14:05:32.207Z,2.83
2022-08-11T14:08:03.793Z,2.38
2022-08-11T14:10:34.871Z,2.60
2022-08-11T14:13:28.330Z,2.13
2022-08-11T14:16:02.084Z,2.17
2022-08-11T14:18:33.667Z,2.30
2022-08-11T14:21:23.314Z,2.05
2022-08-11T14:23:55.267Z,2.00
2022-08-11T14:26:26.544Z,2.20
2022-08-11T14:28:59.087Z,2.22
2022-08-11T14:31:30.134Z,2.20
2022-08-11T14:34:04.570Z,2.30
2022-08-11T14:36:36.231Z,2.28
2022-08-11T14:39:11.684Z,2.00
2022-08-11T14:42:12.666Z,2.28
2022-08-11T14:45:17.731Z,2.17
2022-08-11T14:47:51.040Z,2.20
2022-08-11T14:50:25.801Z,2.00
2022-08-11T14:52:57.595Z,1.80
2022-08-11T14:55:46.271Z,2.20
2022-08-11T14:58:18.767Z,2.22
2022-08-11T15:00:48.050Z,1.83
2022-08-11T15:03:16.275Z,2.00
2022-08-11T15:05:57.019Z,2.00
2022-08-11T15:08:48.367Z,1.83
2022-08-11T15:11:41.271Z,1.70
2022-08-11T15:14:12.021Z,1.92
2022-08-11T15:17:02.382Z,2.17
2022-08-11T15:19:40.456Z,2.08
2022-08-11T15:22:29.232Z,1.80
2022-08-11T15:24:59.989Z,1.90
2022-08-11T15:27:48.316Z,1.77
2022-08-11T15:30:34.614Z,1.75
2022-08-11T15:33:28.061Z,1.67
2022-08-11T15:36:15.420Z,1.67
2022-08-11T15:38:55.815Z,1.90
2022-08-11T15:41:55.101Z,2.10
2022-08-11T15:45:03.632Z,1.90
2022-08-11T15:47:38.097Z,1.83
2022-08-11T15:50:13.593Z,1.80
2022-08-11T15:52:53.598Z,1.70
2022-08-11T15:55:25.371Z,2.00
2022-08-11T15:58:13.554Z,2.00
2022-08-11T16:01:08.570Z,1.80
2022-08-11T16:04:07.986Z,1.83
2022-08-11T16:06:44.102Z,1.90
2022-08-11T16:09:22.969Z,2.00
2022-08-11T16:12:21.074Z,1.90
2022-08-11T16:15:12.563Z,1.55
2022-08-11T16:17:46.696Z,1.90
2022-08-11T16:20:20.513Z,1.90
2022-08-11T16:23:00.464Z,2.08
2022-08-11T16:27:05.338Z,1.65
2022-08-11T16:28:26.155Z,1.90
2022-08-11T16:30:56.207Z,1.83
2022-08-11T16:33:48.332Z,1.95
2022-08-11T16:36:32.973Z,1.80
2022-08-11T16:39:02.517Z,1.70
2022-08-11T16:41:54.013Z,1.73
2022-08-11T16:44:42.538Z,1.70
2022-08-11T16:47:16.227Z,1.80
2022-08-11T16:49:52.712Z,262.45
2022-08-11T16:52:22.091Z,50.45
2022-08-11T16:54:52.924Z,44.63
2022-08-11T16:57:42.419Z,41.08
2022-08-11T17:00:16.176Z,40.47
2022-08-11T17:03:05.664Z,38.40
2022-08-11T17:05:55.219Z,38.60
2022-08-11T17:08:59.717Z,35.55
2022-08-11T17:11:49.500Z,35.65
2022-08-11T17:14:35.579Z,34.60
2022-08-11T17:17:10.543Z,34.33
2022-08-11T17:20:40.660Z,33.78
2022-08-11T17:22:54.977Z,27.40
2022-08-11T17:25:25.526Z,20.13
2022-08-11T17:27:55.318Z,105.50
2022-08-11T17:30:44.586Z,257.48
2022-08-11T17:33:34.041Z,252.30
2022-08-11T17:36:05.148Z,245.23
2022-08-11T17:38:35.080Z,236.20
2022-08-11T17:41:23.478Z,228.48
2022-08-11T17:44:12.300Z,217.63
2022-08-11T17:47:03.579Z,152.82
2022-08-11T17:49:37.594Z,102.90
2022-08-11T17:52:25.558Z,76.20
2022-08-11T17:55:13.734Z,65.97
2022-08-11T17:58:01.192Z,51.90
2022-08-11T18:00:31.738Z,45.05
2022-08-11T18:03:18.920Z,43.10
2022-08-11T18:05:50.186Z,38.97
2022-08-11T18:08:37.877Z,37.53
2022-08-11T18:12:11.575Z,36.95
2022-08-11T18:14:32.966Z,33.53
2022-08-11T18:17:18.831Z,35.25
2022-08-11T18:20:04.755Z,31.77
2022-08-11T18:22:57.024Z,31.55
2022-08-11T18:25:46.304Z,30.52
2022-08-11T18:28:35.093Z,29.65
2022-08-11T18:31:25.370Z,29.20
2022-08-11T18:34:14.299Z,24.55
2022-08-11T18:37:06.734Z,23.27
2022-08-11T18:40:02.708Z,19.75
2022-08-11T18:42:50.692Z,16.42
2022-08-11T18:45:45.782Z,14.68
2022-08-11T18:48:37.634Z,17.00
2022-08-11T18:51:30.561Z,16.80
2022-08-11T18:54:29.899Z,16.75
2022-08-11T18:57:21.881Z,14.82
2022-08-11T19:00:10.660Z,16.05
2022-08-11T19:02:58.979Z,15.38
2022-08-11T19:06:37.126Z,14.25
2022-08-11T19:09:00.033Z,13.98
2022-08-11T19:11:49.031Z,13.85
2022-08-11T19:14:39.768Z,13.73
2022-08-11T19:17:43.307Z,14.10
2022-08-11T19:20:35.879Z,12.93
2022-08-11T19:23:25.212Z,13.05
2022-08-11T19:26:11.511Z,11.88
2022-08-11T19:29:07.571Z,12.18
2022-08-11T19:31:55.779Z,11.57
2022-08-11T19:34:43.961Z,11.38
2022-08-11T19:37:31.294Z,10.38
2022-08-11T19:40:22.197Z,9.50
2022-08-11T19:43:18.747Z,10.23
2022-08-11T19:46:14.749Z,9.32
2022-08-11T19:49:04.736Z,9.30
2022-08-11T19:51:53.397Z,9.10
2022-08-11T19:54:43.376Z,8.55
2022-08-11T19:57:29.859Z,8.60
2022-08-11T20:00:16.885Z,8.98
2022-08-11T20:03:07.272Z,8.48
2022-08-11T20:06:00.007Z,8.45
2022-08-11T20:08:47.840Z,8.40
2022-08-11T20:11:36.078Z,7.63
2022-08-11T20:14:24.904Z,7.72
2022-08-11T20:17:12.812Z,7.28
2022-08-11T20:22:49.675Z,7.32
2022-08-11T20:25:36.515Z,6.90
2022-08-11T20:28:24.525Z,6.57
2022-08-11T20:31:12.486Z,6.13
2022-08-11T20:34:00.702Z,6.22
2022-08-11T20:36:54.044Z,6.60
2022-08-11T20:39:44.084Z,6.93
2022-08-11T20:42:31.289Z,5.88
2022-08-11T20:45:23.561Z,5.45
2022-08-11T20:48:14.527Z,6.50
2022-08-11T20:51:06.235Z,6.78
2022-08-11T20:53:56.715Z,6.18
2022-08-11T20:56:49.358Z,5.75
2022-08-11T20:59:52.669Z,4.70
2022-08-11T21:02:44.863Z,3.70
2022-08-11T21:06:08.603Z,3.50
2022-08-11T21:08:41.645Z,2.80
2022-08-11T21:11:30.323Z,3.08
2022-08-11T21:14:20.783Z,2.85
2022-08-11T21:17:27.485Z,2.70
2022-08-11T21:20:21.824Z,2.80
2022-08-11T21:23:24.032Z,2.25
2022-08-11T21:26:16.985Z,2.50
2022-08-11T21:29:04.155Z,2.60
2022-08-11T21:31:52.800Z,2.78
2022-08-11T21:34:40.902Z,3.00
2022-08-11T21:37:28.884Z,2.50
2022-08-11T21:40:18.930Z,2.90
2022-08-11T21:43:08.569Z,2.60
2022-08-11T21:45:57.893Z,2.72
2022-08-11T21:48:47.378Z,2.70
2022-08-11T21:51:33.505Z,2.42
2022-08-11T21:54:20.295Z,2.67
2022-08-11T21:57:07.863Z,2.58
2022-08-11T22:00:04.395Z,2.53
2022-08-11T22:02:58.130Z,2.38
2022-08-11T22:05:46.169Z,2.60
2022-08-11T22:08:32.456Z,2.50
2022-08-11T22:11:31.690Z,2.30
2022-08-11T22:14:19.257Z,2.40
2022-08-11T22:17:05.435Z,2.55
2022-08-11T22:19:54.325Z,2.60
2022-08-11T22:22:51.904Z,2.55
2022-08-11T22:25:51.449Z,2.60
2022-08-11T22:28:40.487Z,2.40
2022-08-11T22:31:28.927Z,2.70
2022-08-11T22:34:14.751Z,2.42
2022-08-11T22:37:02.205Z,2.80
2022-08-11T22:40:02.266Z,2.60
2022-08-11T22:42:49.572Z,2.85
2022-08-11T22:45:36.137Z,2.30
2022-08-11T22:48:24.620Z,2.70
2022-08-11T22:51:12.356Z,2.70
2022-08-11T22:53:59.525Z,2.83
2022-08-11T22:56:49.375Z,2.90
2022-08-11T22:59:38.427Z,3.03
2022-08-11T23:02:25.841Z,2.72
2022-08-11T23:05:14.491Z,2.90
2022-08-11T23:08:01.027Z,2.63
2022-08-11T23:10:48.644Z,2.72
2022-08-11T23:13:36.807Z,3.00
2022-08-11T23:16:23.333Z,2.90
2022-08-11T23:19:10.891Z,2.88
2022-08-11T23:21:57.980Z,3.47
2022-08-11T23:24:45.143Z,3.03
2022-08-11T23:27:33.463Z,3.13
2022-08-11T23:30:24.989Z,3.22
2022-08-11T23:33:15.738Z,2.90
2022-08-11T23:36:05.837Z,2.88
2022-08-11T23:38:51.606Z,3.05
2022-08-11T23:41:38.011Z,3.13
2022-08-11T23:44:27.941Z,2.63
2022-08-11T23:47:19.416Z,2.90
2022-08-11T23:50:06.647Z,3.03
2022-08-11T23:52:53.506Z,2.63
2022-08-11T23:55:40.471Z,2.83
2022-08-11T23:58:29.044Z,3.13
